sensor_id;sensor_type;location;lat;lon;timestamp;P1;durP1;ratioP1;P2;durP2;ratioP2
23046;SDS011;11691;51.462;6.902;2022-09-27T00:02:13;5.80;;;2.37;;
23046;SDS011;11691;51.462;6.902;2022-09-27T00:04:39;7.77;;;2.00;;
23046;SDS011;11691;51.462;6.902;2022-09-27T00:07:05;7.00;;;2.20;;
23046;SDS011;11691;51.462;6.902;2022-09-27T00:09:31;9.33;;;2.57;;
23046;SDS011;11691;51.462;6.902;2022-09-27T00:11:57;6.40;;;2.80;;
23046;SDS011;11691;51.462;6.902;2022-09-27T00:14:23;7.97;;;3.27;;
23046;SDS011;11691;51.462;6.902;2022-09-27T00:16:49;10.90;;;4.10;;
23046;SDS011;11691;51.462;6.902;2022-09-27T00:19:16;10.97;;;4.33;;
23046;SDS011;11691;51.462;6.902;2022-09-27T00:21:43;12.53;;;4.90;;
23046;SDS011;11691;51.462;6.902;2022-09-27T00:24:14;16.60;;;5.38;;
23046;SDS011;11691;51.462;6.902;2022-09-27T00:26:44;11.00;;;4.43;;
23046;SDS011;11691;51.462;6.902;2022-09-27T00:29:11;13.27;;;4.10;;
23046;SDS011;11691;51.462;6.902;2022-09-27T00:31:38;12.87;;;3.90;;
23046;SDS011;11691;51.462;6.902;2022-09-27T00:34:04;10.43;;;3.10;;
23046;SDS011;11691;51.462;6.902;2022-09-27T00:36:31;6.70;;;2.70;;
23046;SDS011;11691;51.462;6.902;2022-09-27T00:38:58;9.03;;;2.70;;
23046;SDS011;11691;51.462;6.902;2022-09-27T00:41:25;7.13;;;2.50;;
23046;SDS011;11691;51.462;6.902;2022-09-27T00:43:56;8.27;;;2.50;;
23046;SDS011;11691;51.462;6.902;2022-09-27T00:46:29;6.00;;;2.50;;
23046;SDS011;11691;51.462;6.902;2022-09-27T00:49:04;10.43;;;2.53;;
23046;SDS011;11691;51.462;6.902;2022-09-27T00:51:30;11.33;;;2.80;;
23046;SDS011;11691;51.462;6.902;2022-09-27T00:53:58;6.67;;;2.50;;
23046;SDS011;11691;51.462;6.902;2022-09-27T00:56:26;8.47;;;2.53;;
23046;SDS011;11691;51.462;6.902;2022-09-27T00:58:56;8.40;;;2.97;;
23046;SDS011;11691;51.462;6.902;2022-09-27T01:01:31;13.67;;;4.53;;
23046;SDS011;11691;51.462;6.902;2022-09-27T01:04:08;7.77;;;4.07;;
23046;SDS011;11691;51.462;6.902;2022-09-27T01:06:35;7.30;;;4.23;;
23046;SDS011;11691;51.462;6.902;2022-09-27T01:09:02;12.50;;;4.97;;
23046;SDS011;11691;51.462;6.902;2022-09-27T01:14:17;10.43;;;4.77;;
23046;SDS011;11691;51.462;6.902;2022-09-27T01:25:24;11.80;;;5.00;;
23046;SDS011;11691;51.462;6.902;2022-09-27T01:28:07;8.27;;;5.60;;
23046;SDS011;11691;51.462;6.902;2022-09-27T01:41:37;7.83;;;4.70;;
23046;SDS011;11691;51.462;6.902;2022-09-27T01:47:11;8.47;;;4.77;;
23046;SDS011;11691;51.462;6.902;2022-09-27T01:50:05;9.53;;;4.70;;
23046;SDS011;11691;51.462;6.902;2022-09-27T01:52:40;11.73;;;4.27;;
23046;SDS011;11691;51.462;6.902;2022-09-27T01:55:08;8.27;;;4.17;;
23046;SDS011;11691;51.462;6.902;2022-09-27T01:57:37;11.57;;;4.93;;
23046;SDS011;11691;51.462;6.902;2022-09-27T02:00:07;8.47;;;3.90;;
23046;SDS011;11691;51.462;6.902;2022-09-27T02:03:17;11.03;;;4.37;;
23046;SDS011;11691;51.462;6.902;2022-09-27T02:05:36;13.27;;;4.47;;
23046;SDS011;11691;51.462;6.902;2022-09-27T02:08:05;8.30;;;3.60;;
23046;SDS011;11691;51.462;6.902;2022-09-27T02:10:33;10.23;;;4.13;;
23046;SDS011;11691;51.462;6.902;2022-09-27T02:13:03;7.50;;;3.23;;
23046;SDS011;11691;51.462;6.902;2022-09-27T02:15:31;6.93;;;4.00;;
23046;SDS011;11691;51.462;6.902;2022-09-27T02:18:06;7.97;;;4.00;;
23046;SDS011;11691;51.462;6.902;2022-09-27T02:20:36;8.17;;;3.90;;
23046;SDS011;11691;51.462;6.902;2022-09-27T02:26:11;11.43;;;4.90;;
23046;SDS011;11691;51.462;6.902;2022-09-27T02:28:46;9.73;;;5.57;;
23046;SDS011;11691;51.462;6.902;2022-09-27T02:31:21;14.20;;;5.20;;
23046;SDS011;11691;51.462;6.902;2022-09-27T02:36:13;12.53;;;4.43;;
23046;SDS011;11691;51.462;6.902;2022-09-27T02:38:39;10.60;;;4.73;;
23046;SDS011;11691;51.462;6.902;2022-09-27T02:41:39;10.27;;;4.27;;
23046;SDS011;11691;51.462;6.902;2022-09-27T02:43:58;11.33;;;4.00;;
23046;SDS011;11691;51.462;6.902;2022-09-27T02:49:03;10.93;;;3.43;;
23046;SDS011;11691;51.462;6.902;2022-09-27T02:54:19;8.90;;;4.10;;
23046;SDS011;11691;51.462;6.902;2022-09-27T02:59:32;8.50;;;4.80;;
23046;SDS011;11691;51.462;6.902;2022-09-27T03:04:39;12.20;;;5.60;;
23046;SDS011;11691;51.462;6.902;2022-09-27T03:07:05;10.30;;;4.40;;
23046;SDS011;11691;51.462;6.902;2022-09-27T03:09:50;12.90;;;5.40;;
23046;SDS011;11691;51.462;6.902;2022-09-27T03:12:17;8.97;;;4.03;;
23046;SDS011;11691;51.462;6.902;2022-09-27T03:14:46;11.30;;;4.30;;
23046;SDS011;11691;51.462;6.902;2022-09-27T03:17:13;8.37;;;4.30;;
23046;SDS011;11691;51.462;6.902;2022-09-27T03:19:39;9.97;;;3.53;;
23046;SDS011;11691;51.462;6.902;2022-09-27T03:22:05;8.77;;;3.37;;
23046;SDS011;11691;51.462;6.902;2022-09-27T03:24:31;5.43;;;3.20;;
23046;SDS011;11691;51.462;6.902;2022-09-27T03:26:57;10.87;;;3.20;;
23046;SDS011;11691;51.462;6.902;2022-09-27T03:29:23;15.80;;;3.93;;
23046;SDS011;11691;51.462;6.902;2022-09-27T03:31:48;9.33;;;3.47;;
23046;SDS011;11691;51.462;6.902;2022-09-27T03:34:14;6.33;;;3.17;;
23046;SDS011;11691;51.462;6.902;2022-09-27T03:36:40;8.20;;;3.07;;
23046;SDS011;11691;51.462;6.902;2022-09-27T03:39:07;16.03;;;3.43;;
23046;SDS011;11691;51.462;6.902;2022-09-27T03:41:32;7.43;;;3.87;;
23046;SDS011;11691;51.462;6.902;2022-09-27T03:43:59;8.00;;;4.40;;
23046;SDS011;11691;51.462;6.902;2022-09-27T03:46:24;8.77;;;4.13;;
23046;SDS011;11691;51.462;6.902;2022-09-27T03:48:51;6.27;;;3.70;;
23046;SDS011;11691;51.462;6.902;2022-09-27T03:51:17;5.33;;;3.50;;
23046;SDS011;11691;51.462;6.902;2022-09-27T03:53:43;11.23;;;3.40;;
23046;SDS011;11691;51.462;6.902;2022-09-27T03:56:09;10.63;;;3.60;;
23046;SDS011;11691;51.462;6.902;2022-09-27T03:58:35;10.60;;;3.33;;
23046;SDS011;11691;51.462;6.902;2022-09-27T04:01:01;9.73;;;3.50;;
23046;SDS011;11691;51.462;6.902;2022-09-27T04:03:27;5.70;;;3.20;;
23046;SDS011;11691;51.462;6.902;2022-09-27T04:05:53;8.53;;;3.43;;
23046;SDS011;11691;51.462;6.902;2022-09-27T04:08:19;8.67;;;4.37;;
23046;SDS011;11691;51.462;6.902;2022-09-27T04:10:46;9.77;;;3.93;;
23046;SDS011;11691;51.462;6.902;2022-09-27T04:13:12;7.27;;;4.17;;
23046;SDS011;11691;51.462;6.902;2022-09-27T04:15:38;7.33;;;3.23;;
23046;SDS011;11691;51.462;6.902;2022-09-27T04:18:03;10.03;;;4.03;;
23046;SDS011;11691;51.462;6.902;2022-09-27T04:20:29;6.17;;;3.17;;
23046;SDS011;11691;51.462;6.902;2022-09-27T04:22:55;7.43;;;3.07;;
23046;SDS011;11691;51.462;6.902;2022-09-27T04:25:21;10.77;;;3.30;;
23046;SDS011;11691;51.462;6.902;2022-09-27T04:27:48;9.40;;;4.03;;
23046;SDS011;11691;51.462;6.902;2022-09-27T04:30:19;11.67;;;3.13;;
23046;SDS011;11691;51.462;6.902;2022-09-27T04:32:45;10.97;;;3.40;;
23046;SDS011;11691;51.462;6.902;2022-09-27T04:35:11;10.07;;;3.73;;
23046;SDS011;11691;51.462;6.902;2022-09-27T04:37:57;4.47;;;2.90;;
23046;SDS011;11691;51.462;6.902;2022-09-27T04:40:23;6.77;;;2.90;;
23046;SDS011;11691;51.462;6.902;2022-09-27T04:42:49;6.33;;;3.43;;
23046;SDS011;11691;51.462;6.902;2022-09-27T04:45:16;4.57;;;2.73;;
23046;SDS011;11691;51.462;6.902;2022-09-27T04:47:43;8.47;;;3.00;;
23046;SDS011;11691;51.462;6.902;2022-09-27T04:50:10;9.63;;;3.07;;
23046;SDS011;11691;51.462;6.902;2022-09-27T04:52:36;7.57;;;2.60;;
23046;SDS011;11691;51.462;6.902;2022-09-27T04:55:03;6.20;;;2.50;;
23046;SDS011;11691;51.462;6.902;2022-09-27T04:57:29;5.63;;;2.50;;
23046;SDS011;11691;51.462;6.902;2022-09-27T04:59:55;5.53;;;2.23;;
23046;SDS011;11691;51.462;6.902;2022-09-27T05:02:24;4.33;;;1.90;;
23046;SDS011;11691;51.462;6.902;2022-09-27T05:04:51;6.17;;;2.33;;
23046;SDS011;11691;51.462;6.902;2022-09-27T05:07:17;6.43;;;1.90;;
23046;SDS011;11691;51.462;6.902;2022-09-27T05:09:43;9.10;;;2.03;;
23046;SDS011;11691;51.462;6.902;2022-09-27T05:12:09;4.10;;;1.87;;
23046;SDS011;11691;51.462;6.902;2022-09-27T05:14:37;5.73;;;1.90;;
23046;SDS011;11691;51.462;6.902;2022-09-27T05:17:03;4.97;;;1.90;;
23046;SDS011;11691;51.462;6.902;2022-09-27T05:19:31;7.67;;;1.90;;
23046;SDS011;11691;51.462;6.902;2022-09-27T05:21:57;3.93;;;1.70;;
23046;SDS011;11691;51.462;6.902;2022-09-27T05:24:23;9.83;;;1.73;;
23046;SDS011;11691;51.462;6.902;2022-09-27T05:26:49;5.77;;;1.90;;
23046;SDS011;11691;51.462;6.902;2022-09-27T05:29:15;5.07;;;1.87;;
23046;SDS011;11691;51.462;6.902;2022-09-27T05:31:41;6.43;;;1.60;;
23046;SDS011;11691;51.462;6.902;2022-09-27T05:34:07;4.17;;;1.77;;
23046;SDS011;11691;51.462;6.902;2022-09-27T05:36:34;7.57;;;1.90;;
23046;SDS011;11691;51.462;6.902;2022-09-27T05:39:01;7.77;;;1.90;;
23046;SDS011;11691;51.462;6.902;2022-09-27T05:41:27;6.80;;;1.63;;
23046;SDS011;11691;51.462;6.902;2022-09-27T05:43:53;5.90;;;1.40;;
23046;SDS011;11691;51.462;6.902;2022-09-27T05:46:20;5.23;;;1.30;;
23046;SDS011;11691;51.462;6.902;2022-09-27T05:48:45;5.60;;;1.73;;
23046;SDS011;11691;51.462;6.902;2022-09-27T05:51:11;6.77;;;1.63;;
23046;SDS011;11691;51.462;6.902;2022-09-27T05:53:38;7.07;;;1.77;;
23046;SDS011;11691;51.462;6.902;2022-09-27T05:56:04;7.13;;;1.60;;
23046;SDS011;11691;51.462;6.902;2022-09-27T05:58:30;7.03;;;1.43;;
23046;SDS011;11691;51.462;6.902;2022-09-27T06:00:56;8.60;;;1.53;;
23046;SDS011;11691;51.462;6.902;2022-09-27T06:03:22;4.97;;;1.70;;
23046;SDS011;11691;51.462;6.902;2022-09-27T06:05:48;5.57;;;1.53;;
23046;SDS011;11691;51.462;6.902;2022-09-27T06:08:14;8.00;;;1.73;;
23046;SDS011;11691;51.462;6.902;2022-09-27T06:10:40;5.17;;;1.50;;
23046;SDS011;11691;51.462;6.902;2022-09-27T06:13:10;7.73;;;1.70;;
23046;SDS011;11691;51.462;6.902;2022-09-27T06:15:37;3.90;;;1.17;;
23046;SDS011;11691;51.462;6.902;2022-09-27T06:18:04;7.27;;;1.60;;
23046;SDS011;11691;51.462;6.902;2022-09-27T06:20:33;6.53;;;1.43;;
23046;SDS011;11691;51.462;6.902;2022-09-27T06:23:05;4.77;;;1.50;;
23046;SDS011;11691;51.462;6.902;2022-09-27T06:25:32;6.33;;;1.70;;
23046;SDS011;11691;51.462;6.902;2022-09-27T06:27:58;4.77;;;1.27;;
23046;SDS011;11691;51.462;6.902;2022-09-27T06:30:24;4.10;;;1.40;;
23046;SDS011;11691;51.462;6.902;2022-09-27T06:32:57;3.37;;;1.60;;
23046;SDS011;11691;51.462;6.902;2022-09-27T06:35:27;5.77;;;1.93;;
23046;SDS011;11691;51.462;6.902;2022-09-27T06:37:53;5.33;;;1.50;;
23046;SDS011;11691;51.462;6.902;2022-09-27T06:40:20;5.13;;;1.40;;
23046;SDS011;11691;51.462;6.902;2022-09-27T06:42:46;6.00;;;1.93;;
23046;SDS011;11691;51.462;6.902;2022-09-27T06:45:14;1.93;;;1.47;;
23046;SDS011;11691;51.462;6.902;2022-09-27T06:47:40;6.10;;;1.60;;
23046;SDS011;11691;51.462;6.902;2022-09-27T06:50:06;4.90;;;1.57;;
23046;SDS011;11691;51.462;6.902;2022-09-27T06:52:32;4.33;;;1.73;;
23046;SDS011;11691;51.462;6.902;2022-09-27T06:54:59;3.17;;;1.47;;
23046;SDS011;11691;51.462;6.902;2022-09-27T06:57:25;8.40;;;1.93;;
23046;SDS011;11691;51.462;6.902;2022-09-27T07:00:10;5.23;;;2.10;;
23046;SDS011;11691;51.462;6.902;2022-09-27T07:02:50;5.13;;;2.03;;
23046;SDS011;11691;51.462;6.902;2022-09-27T07:05:17;4.73;;;2.13;;
23046;SDS011;11691;51.462;6.902;2022-09-27T07:07:43;5.97;;;2.10;;
23046;SDS011;11691;51.462;6.902;2022-09-27T07:10:10;8.67;;;2.47;;
23046;SDS011;11691;51.462;6.902;2022-09-27T07:12:36;5.27;;;1.50;;
23046;SDS011;11691;51.462;6.902;2022-09-27T07:15:03;5.83;;;1.47;;
23046;SDS011;11691;51.462;6.902;2022-09-27T07:17:29;4.90;;;2.10;;
23046;SDS011;11691;51.462;6.902;2022-09-27T07:19:55;4.03;;;1.93;;
23046;SDS011;11691;51.462;6.902;2022-09-27T07:22:21;6.97;;;1.90;;
23046;SDS011;11691;51.462;6.902;2022-09-27T07:24:47;6.40;;;1.80;;
23046;SDS011;11691;51.462;6.902;2022-09-27T07:27:14;6.13;;;2.00;;
23046;SDS011;11691;51.462;6.902;2022-09-27T07:29:40;8.03;;;2.00;;
23046;SDS011;11691;51.462;6.902;2022-09-27T07:32:06;5.43;;;1.53;;
23046;SDS011;11691;51.462;6.902;2022-09-27T07:34:32;5.43;;;1.87;;
23046;SDS011;11691;51.462;6.902;2022-09-27T07:36:58;8.10;;;1.80;;
23046;SDS011;11691;51.462;6.902;2022-09-27T07:39:25;7.10;;;2.33;;
23046;SDS011;11691;51.462;6.902;2022-09-27T07:41:51;5.83;;;1.90;;
23046;SDS011;11691;51.462;6.902;2022-09-27T07:44:17;6.27;;;1.60;;
23046;SDS011;11691;51.462;6.902;2022-09-27T07:46:43;3.73;;;1.23;;
23046;SDS011;11691;51.462;6.902;2022-09-27T07:49:09;3.93;;;1.13;;
23046;SDS011;11691;51.462;6.902;2022-09-27T07:51:35;4.80;;;1.27;;
23046;SDS011;11691;51.462;6.902;2022-09-27T07:54:01;1.77;;;1.00;;
23046;SDS011;11691;51.462;6.902;2022-09-27T07:56:27;5.80;;;1.30;;
23046;SDS011;11691;51.462;6.902;2022-09-27T07:58:53;1.90;;;0.93;;
23046;SDS011;11691;51.462;6.902;2022-09-27T08:01:18;4.13;;;1.13;;
23046;SDS011;11691;51.462;6.902;2022-09-27T08:03:44;2.10;;;0.90;;
23046;SDS011;11691;51.462;6.902;2022-09-27T08:06:11;2.83;;;1.27;;
23046;SDS011;11691;51.462;6.902;2022-09-27T08:08:37;1.47;;;0.70;;
23046;SDS011;11691;51.462;6.902;2022-09-27T08:11:12;2.30;;;0.90;;
23046;SDS011;11691;51.462;6.902;2022-09-27T08:13:42;5.00;;;1.20;;
23046;SDS011;11691;51.462;6.902;2022-09-27T08:16:09;3.13;;;0.80;;
23046;SDS011;11691;51.462;6.902;2022-09-27T08:18:35;3.23;;;1.07;;
23046;SDS011;11691;51.462;6.902;2022-09-27T08:21:01;6.37;;;1.40;;
23046;SDS011;11691;51.462;6.902;2022-09-27T08:23:28;5.77;;;1.00;;
23046;SDS011;11691;51.462;6.902;2022-09-27T08:25:55;4.63;;;1.33;;
23046;SDS011;11691;51.462;6.902;2022-09-27T08:28:24;3.47;;;1.55;;
23046;SDS011;11691;51.462;6.902;2022-09-27T08:30:51;2.72;;;0.93;;
23046;SDS011;11691;51.462;6.902;2022-09-27T08:33:17;4.85;;;1.00;;
23046;SDS011;11691;51.462;6.902;2022-09-27T08:35:43;6.63;;;0.88;;
23046;SDS011;11691;51.462;6.902;2022-09-27T08:38:09;2.53;;;0.80;;
23046;SDS011;11691;51.462;6.902;2022-09-27T08:48:58;1.25;;;0.70;;
23046;SDS011;11691;51.462;6.902;2022-09-27T08:51:27;3.00;;;0.87;;
23046;SDS011;11691;51.462;6.902;2022-09-27T08:53:59;2.47;;;1.00;;
23046;SDS011;11691;51.462;6.902;2022-09-27T08:56:32;8.25;;;1.05;;
23046;SDS011;11691;51.462;6.902;2022-09-27T08:59:00;6.97;;;1.67;;
23046;SDS011;11691;51.462;6.902;2022-09-27T09:01:35;3.47;;;1.20;;
23046;SDS011;11691;51.462;6.902;2022-09-27T09:04:01;3.00;;;1.00;;
23046;SDS011;11691;51.462;6.902;2022-09-27T09:18:04;3.50;;;1.37;;
23046;SDS011;11691;51.462;6.902;2022-09-27T09:28:54;3.40;;;1.40;;
23046;SDS011;11691;51.462;6.902;2022-09-27T09:34:04;4.83;;;1.47;;
23046;SDS011;11691;51.462;6.902;2022-09-27T09:36:33;4.60;;;1.60;;
23046;SDS011;11691;51.462;6.902;2022-09-27T09:39:23;7.03;;;1.73;;
23046;SDS011;11691;51.462;6.902;2022-09-27T09:47:23;5.80;;;1.77;;
23046;SDS011;11691;51.462;6.902;2022-09-27T09:49:59;7.10;;;1.83;;
23046;SDS011;11691;51.462;6.902;2022-09-27T09:52:28;3.43;;;1.70;;
23046;SDS011;11691;51.462;6.902;2022-09-27T09:55:13;5.87;;;1.80;;
23046;SDS011;11691;51.462;6.902;2022-09-27T09:57:51;7.78;;;2.55;;
23046;SDS011;11691;51.462;6.902;2022-09-27T10:00:19;6.50;;;2.10;;
23046;SDS011;11691;51.462;6.902;2022-09-27T10:02:46;6.40;;;2.30;;
23046;SDS011;11691;51.462;6.902;2022-09-27T10:05:14;4.63;;;2.00;;
23046;SDS011;11691;51.462;6.902;2022-09-27T10:07:40;3.37;;;2.10;;
23046;SDS011;11691;51.462;6.902;2022-09-27T10:10:06;4.73;;;2.57;;
23046;SDS011;11691;51.462;6.902;2022-09-27T10:12:35;4.10;;;1.85;;
23046;SDS011;11691;51.462;6.902;2022-09-27T10:15:03;6.10;;;2.50;;
23046;SDS011;11691;51.462;6.902;2022-09-27T10:17:39;3.40;;;2.20;;
23046;SDS011;11691;51.462;6.902;2022-09-27T10:20:06;4.63;;;2.40;;
23046;SDS011;11691;51.462;6.902;2022-09-27T10:22:40;5.20;;;2.30;;
23046;SDS011;11691;51.462;6.902;2022-09-27T10:25:11;5.03;;;2.70;;
23046;SDS011;11691;51.462;6.902;2022-09-27T10:27:45;5.03;;;2.40;;
23046;SDS011;11691;51.462;6.902;2022-09-27T10:30:27;5.70;;;2.50;;
23046;SDS011;11691;51.462;6.902;2022-09-27T10:32:57;4.10;;;2.60;;
23046;SDS011;11691;51.462;6.902;2022-09-27T10:41:15;5.43;;;2.40;;
23046;SDS011;11691;51.462;6.902;2022-09-27T10:43:47;2.28;;;1.60;;
23046;SDS011;11691;51.462;6.902;2022-09-27T10:46:22;2.83;;;1.67;;
23046;SDS011;11691;51.462;6.902;2022-09-27T10:51:58;2.33;;;1.30;;
23046;SDS011;11691;51.462;6.902;2022-09-27T10:54:25;2.47;;;1.08;;
23046;SDS011;11691;51.462;6.902;2022-09-27T10:56:56;1.65;;;1.10;;
23046;SDS011;11691;51.462;6.902;2022-09-27T10:59:23;2.50;;;1.02;;
23046;SDS011;11691;51.462;6.902;2022-09-27T11:01:51;1.30;;;0.85;;
23046;SDS011;11691;51.462;6.902;2022-09-27T11:04:22;1.27;;;1.10;;
23046;SDS011;11691;51.462;6.902;2022-09-27T11:07:13;2.85;;;1.00;;
23046;SDS011;11691;51.462;6.902;2022-09-27T11:09:44;3.05;;;1.27;;
23046;SDS011;11691;51.462;6.902;2022-09-27T11:12:13;3.35;;;1.30;;
23046;SDS011;11691;51.462;6.902;2022-09-27T11:14:42;2.28;;;1.10;;
23046;SDS011;11691;51.462;6.902;2022-09-27T11:17:16;2.17;;;1.20;;
23046;SDS011;11691;51.462;6.902;2022-09-27T11:25:24;2.50;;;1.60;;
23046;SDS011;11691;51.462;6.902;2022-09-27T11:30:46;3.95;;;1.80;;
23046;SDS011;11691;51.462;6.902;2022-09-27T11:46:32;2.92;;;1.60;;
23046;SDS011;11691;51.462;6.902;2022-09-27T11:49:03;3.28;;;1.92;;
23046;SDS011;11691;51.462;6.902;2022-09-27T11:57:05;6.13;;;2.10;;
23046;SDS011;11691;51.462;6.902;2022-09-27T12:07:50;3.88;;;2.38;;
23046;SDS011;11691;51.462;6.902;2022-09-27T12:10:17;4.20;;;2.90;;
23046;SDS011;11691;51.462;6.902;2022-09-27T12:12:47;3.42;;;2.47;;
23046;SDS011;11691;51.462;6.902;2022-09-27T12:15:24;4.97;;;2.97;;
23046;SDS011;11691;51.462;6.902;2022-09-27T12:17:55;4.22;;;2.67;;
23046;SDS011;11691;51.462;6.902;2022-09-27T12:20:26;6.80;;;3.35;;
23046;SDS011;11691;51.462;6.902;2022-09-27T12:23:02;4.85;;;3.30;;
23046;SDS011;11691;51.462;6.902;2022-09-27T12:25:35;4.85;;;2.90;;
23046;SDS011;11691;51.462;6.902;2022-09-27T12:28:05;4.33;;;2.83;;
23046;SDS011;11691;51.462;6.902;2022-09-27T12:30:34;3.80;;;2.50;;
23046;SDS011;11691;51.462;6.902;2022-09-27T12:35:48;4.77;;;3.43;;
23046;SDS011;11691;51.462;6.902;2022-09-27T12:38:18;4.70;;;3.27;;
23046;SDS011;11691;51.462;6.902;2022-09-27T12:40:51;4.23;;;3.40;;
23046;SDS011;11691;51.462;6.902;2022-09-27T12:43:20;7.72;;;3.97;;
23046;SDS011;11691;51.462;6.902;2022-09-27T12:45:50;4.60;;;3.63;;
23046;SDS011;11691;51.462;6.902;2022-09-27T12:50:46;7.63;;;3.70;;
23046;SDS011;11691;51.462;6.902;2022-09-27T12:53:23;7.20;;;3.57;;
23046;SDS011;11691;51.462;6.902;2022-09-27T13:01:11;4.10;;;3.10;;
23046;SDS011;11691;51.462;6.902;2022-09-27T13:12:31;2.38;;;1.48;;
23046;SDS011;11691;51.462;6.902;2022-09-27T13:20:46;4.03;;;1.30;;
23046;SDS011;11691;51.462;6.902;2022-09-27T13:22:54;2.03;;;1.23;;
23046;SDS011;11691;51.462;6.902;2022-09-27T13:30:51;1.30;;;0.80;;
23046;SDS011;11691;51.462;6.902;2022-09-27T13:36:04;1.58;;;1.10;;
23046;SDS011;11691;51.462;6.902;2022-09-27T13:41:19;1.77;;;1.10;;
23046;SDS011;11691;51.462;6.902;2022-09-27T13:43:51;1.67;;;1.10;;
23046;SDS011;11691;51.462;6.902;2022-09-27T13:46:22;1.30;;;1.10;;
23046;SDS011;11691;51.462;6.902;2022-09-27T13:49:02;3.42;;;1.50;;
23046;SDS011;11691;51.462;6.902;2022-09-27T13:51:38;1.63;;;1.20;;
23046;SDS011;11691;51.462;6.902;2022-09-27T13:54:06;1.70;;;1.15;;
23046;SDS011;11691;51.462;6.902;2022-09-27T13:56:52;1.70;;;1.20;;
23046;SDS011;11691;51.462;6.902;2022-09-27T13:59:38;2.00;;;1.20;;
23046;SDS011;11691;51.462;6.902;2022-09-27T14:04:45;2.95;;;1.25;;
23046;SDS011;11691;51.462;6.902;2022-09-27T14:07:25;2.78;;;1.00;;
23046;SDS011;11691;51.462;6.902;2022-09-27T14:09:59;2.50;;;1.00;;
23046;SDS011;11691;51.462;6.902;2022-09-27T14:12:36;1.33;;;0.70;;
23046;SDS011;11691;51.462;6.902;2022-09-27T14:15:03;4.57;;;0.90;;
23046;SDS011;11691;51.462;6.902;2022-09-27T14:17:31;2.80;;;0.80;;
23046;SDS011;11691;51.462;6.902;2022-09-27T14:19:58;1.90;;;0.70;;
23046;SDS011;11691;51.462;6.902;2022-09-27T14:22:23;1.77;;;1.05;;
23046;SDS011;11691;51.462;6.902;2022-09-27T14:24:50;1.20;;;0.60;;
23046;SDS011;11691;51.462;6.902;2022-09-27T14:27:23;1.35;;;0.60;;
23046;SDS011;11691;51.462;6.902;2022-09-27T14:32:26;1.30;;;0.43;;
23046;SDS011;11691;51.462;6.902;2022-09-27T14:37:28;1.08;;;0.52;;
23046;SDS011;11691;51.462;6.902;2022-09-27T14:39:59;1.52;;;0.50;;
23046;SDS011;11691;51.462;6.902;2022-09-27T14:42:29;1.30;;;0.60;;
23046;SDS011;11691;51.462;6.902;2022-09-27T14:45:02;2.08;;;0.65;;
23046;SDS011;11691;51.462;6.902;2022-09-27T14:47:52;1.58;;;0.45;;
23046;SDS011;11691;51.462;6.902;2022-09-27T14:52:44;3.55;;;0.68;;
23046;SDS011;11691;51.462;6.902;2022-09-27T14:55:14;2.30;;;0.50;;
23046;SDS011;11691;51.462;6.902;2022-09-27T14:57:44;4.30;;;0.88;;
23046;SDS011;11691;51.462;6.902;2022-09-27T15:00:21;3.40;;;0.80;;
23046;SDS011;11691;51.462;6.902;2022-09-27T15:02:50;5.40;;;0.85;;
23046;SDS011;11691;51.462;6.902;2022-09-27T15:05:20;2.50;;;0.70;;
23046;SDS011;11691;51.462;6.902;2022-09-27T15:07:47;3.88;;;1.00;;
23046;SDS011;11691;51.462;6.902;2022-09-27T15:10:14;2.13;;;0.70;;
23046;SDS011;11691;51.462;6.902;2022-09-27T15:12:41;2.05;;;0.50;;
23046;SDS011;11691;51.462;6.902;2022-09-27T15:15:10;2.17;;;1.13;;
23046;SDS011;11691;51.462;6.902;2022-09-27T15:17:41;1.25;;;0.50;;
23046;SDS011;11691;51.462;6.902;2022-09-27T15:22:52;2.40;;;0.70;;
23046;SDS011;11691;51.462;6.902;2022-09-27T15:27:47;2.60;;;1.15;;
23046;SDS011;11691;51.462;6.902;2022-09-27T15:30:15;2.78;;;1.10;;
23046;SDS011;11691;51.462;6.902;2022-09-27T15:32:47;3.22;;;0.85;;
23046;SDS011;11691;51.462;6.902;2022-09-27T15:35:18;3.10;;;1.10;;
23046;SDS011;11691;51.462;6.902;2022-09-27T15:37:45;4.20;;;1.38;;
23046;SDS011;11691;51.462;6.902;2022-09-27T15:42:56;2.42;;;0.82;;
23046;SDS011;11691;51.462;6.902;2022-09-27T15:45:33;2.33;;;1.27;;
23046;SDS011;11691;51.462;6.902;2022-09-27T15:48:13;2.15;;;1.08;;
23046;SDS011;11691;51.462;6.902;2022-09-27T15:50:39;3.30;;;0.90;;
23046;SDS011;11691;51.462;6.902;2022-09-27T15:53:06;2.17;;;0.82;;
23046;SDS011;11691;51.462;6.902;2022-09-27T15:55:34;2.97;;;1.00;;
23046;SDS011;11691;51.462;6.902;2022-09-27T15:58:05;2.95;;;0.82;;
23046;SDS011;11691;51.462;6.902;2022-09-27T16:00:38;1.48;;;0.77;;
23046;SDS011;11691;51.462;6.902;2022-09-27T16:03:19;2.20;;;0.88;;
23046;SDS011;11691;51.462;6.902;2022-09-27T16:05:44;0.65;;;0.60;;
23046;SDS011;11691;51.462;6.902;2022-09-27T16:08:10;3.25;;;1.35;;
23046;SDS011;11691;51.462;6.902;2022-09-27T16:10:41;3.78;;;1.05;;
23046;SDS011;11691;51.462;6.902;2022-09-27T16:13:07;3.83;;;1.25;;
23046;SDS011;11691;51.462;6.902;2022-09-27T16:15:33;1.95;;;0.95;;
23046;SDS011;11691;51.462;6.902;2022-09-27T16:17:59;1.35;;;0.90;;
23046;SDS011;11691;51.462;6.902;2022-09-27T16:20:25;4.95;;;1.20;;
23046;SDS011;11691;51.462;6.902;2022-09-27T16:22:52;3.65;;;1.30;;
23046;SDS011;11691;51.462;6.902;2022-09-27T16:25:18;1.50;;;1.00;;
23046;SDS011;11691;51.462;6.902;2022-09-27T16:27:45;2.42;;;0.73;;
23046;SDS011;11691;51.462;6.902;2022-09-27T16:30:11;1.75;;;0.60;;
23046;SDS011;11691;51.462;6.902;2022-09-27T16:32:44;2.15;;;1.08;;
23046;SDS011;11691;51.462;6.902;2022-09-27T16:35:11;3.25;;;1.23;;
23046;SDS011;11691;51.462;6.902;2022-09-27T16:37:38;2.25;;;1.50;;
23046;SDS011;11691;51.462;6.902;2022-09-27T16:40:04;4.07;;;2.07;;
23046;SDS011;11691;51.462;6.902;2022-09-27T16:42:31;6.13;;;1.67;;
23046;SDS011;11691;51.462;6.902;2022-09-27T16:44:57;6.40;;;1.45;;
23046;SDS011;11691;51.462;6.902;2022-09-27T16:47:23;5.43;;;1.42;;
23046;SDS011;11691;51.462;6.902;2022-09-27T16:49:49;4.07;;;1.80;;
23046;SDS011;11691;51.462;6.902;2022-09-27T16:52:33;3.70;;;1.93;;
23046;SDS011;11691;51.462;6.902;2022-09-27T16:54:59;3.60;;;2.10;;
23046;SDS011;11691;51.462;6.902;2022-09-27T16:57:25;2.37;;;1.40;;
23046;SDS011;11691;51.462;6.902;2022-09-27T16:59:57;4.20;;;1.47;;
23046;SDS011;11691;51.462;6.902;2022-09-27T17:02:23;2.93;;;1.57;;
23046;SDS011;11691;51.462;6.902;2022-09-27T17:04:50;7.57;;;1.70;;
23046;SDS011;11691;51.462;6.902;2022-09-27T17:07:16;3.47;;;1.37;;
23046;SDS011;11691;51.462;6.902;2022-09-27T17:09:42;3.37;;;1.47;;
23046;SDS011;11691;51.462;6.902;2022-09-27T17:12:09;2.73;;;1.23;;
23046;SDS011;11691;51.462;6.902;2022-09-27T17:14:35;2.83;;;1.40;;
23046;SDS011;11691;51.462;6.902;2022-09-27T17:17:00;4.17;;;1.40;;
23046;SDS011;11691;51.462;6.902;2022-09-27T17:19:26;4.63;;;1.50;;
23046;SDS011;11691;51.462;6.902;2022-09-27T17:21:52;4.43;;;1.53;;
23046;SDS011;11691;51.462;6.902;2022-09-27T17:24:21;2.90;;;1.70;;
23046;SDS011;11691;51.462;6.902;2022-09-27T17:26:47;3.27;;;1.60;;
23046;SDS011;11691;51.462;6.902;2022-09-27T17:29:13;4.70;;;1.80;;
23046;SDS011;11691;51.462;6.902;2022-09-27T17:31:39;3.93;;;1.80;;
23046;SDS011;11691;51.462;6.902;2022-09-27T17:34:06;3.93;;;1.97;;
23046;SDS011;11691;51.462;6.902;2022-09-27T17:36:36;4.03;;;2.13;;
23046;SDS011;11691;51.462;6.902;2022-09-27T17:39:06;3.10;;;1.80;;
23046;SDS011;11691;51.462;6.902;2022-09-27T17:41:32;7.30;;;2.00;;
23046;SDS011;11691;51.462;6.902;2022-09-27T17:43:59;6.23;;;2.20;;
23046;SDS011;11691;51.462;6.902;2022-09-27T17:46:29;6.03;;;2.60;;
23046;SDS011;11691;51.462;6.902;2022-09-27T17:48:56;4.67;;;2.30;;
23046;SDS011;11691;51.462;6.902;2022-09-27T17:51:41;4.53;;;2.20;;
23046;SDS011;11691;51.462;6.902;2022-09-27T17:54:09;4.17;;;1.90;;